Latest Weather Observations for Bankstown

IDN60801

Issued at 6:35 pm EST Wednesday 27 August 2014 (issued every 30 minutes, with the page automatically refreshed every 10 minutes)

About weather observations | Map of weather stations | Latest weather observations for NSW | Other Formats
Station Details ID: 066137 Name: BANKSTOWN AIRPORT AWS Lat: -33.92 Lon: 150.99 Height: 6.5 m
Data from the previous 72 hours. | See also: Recent months at Bankstown
Date/Time
EST
Temp
°C
App
Temp
°C
Dew
Point
Rel
Hum
%
Delta-T
°C
Wind Press
QNH
hPa
Press
MSL
hPa
Rain
since 9 am
mm
Dir
 
Spd
km/h
Gust
km/h
Spd
kts
Gust
kts
27/06:30pm 14.0 11.3 9.0 72 2.5 S 13 19 7 10 1025.8 - 2.6
27/06:00pm 14.1 11.3 9.9 76 2.2 S 15 20 8 11 1025.7 1025.7 2.6
27/05:30pm 15.0 11.3 9.6 70 2.8 S 19 26 10 14 1025.4 - 2.6
27/05:00pm 15.7 11.0 9.4 66 3.2 SSE 24 39 13 21 1025.1 1025.1 2.6
27/04:30pm 15.8 9.6 9.5 66 3.3 SE 32 43 17 23 1024.7 - 2.6
27/04:00pm 16.1 9.8 9.8 66 3.3 SE 33 44 18 24 1024.5 1024.5 2.6
27/03:30pm 15.4 11.8 11.8 79 1.9 SE 22 30 12 16 1024.5 - 2.6
27/03:00pm 14.8 11.6 11.8 82 1.6 SE 20 35 11 19 1024.4 1024.4 2.4
27/02:59pm 14.8 11.5 11.6 81 1.7 SE 20 33 11 18 1024.4 - 2.4
27/02:41pm 14.6 9.0 10.2 75 2.3 SE 30 43 16 23 1024.6 - 2.0
27/02:30pm 15.3 10.9 10.3 72 2.6 SSE 24 35 13 19 1024.4 - 1.6
27/02:00pm 17.2 12.1 11.9 71 2.9 SE 30 41 16 22 1024.2 1024.2 1.4
27/01:54pm 17.0 13.2 12.3 74 2.6 SE 24 37 13 20 1024.1 - 1.4
27/01:35pm 14.9 9.0 10.5 75 2.3 ESE 32 50 17 27 1024.4 - 1.2
27/01:30pm 14.9 9.8 10.5 75 2.3 ESE 28 46 15 25 1024.4 - 0.8
27/01:28pm 15.1 9.8 9.9 71 2.7 ESE 28 46 15 25 1024.4 - 0.8
27/01:00pm 17.1 12.3 10.2 64 3.6 SSE 26 35 14 19 1024.3 1024.3 0.6
27/12:30pm 15.6 11.1 11.4 76 2.3 ESE 26 33 14 18 1024.7 - 0.6
27/12:23pm 16.1 12.5 11.9 76 2.3 SE 22 33 12 18 1024.9 - 0.6
27/12:08pm 15.2 9.0 11.4 78 2.0 SSE 35 54 19 29 1025.1 - 0.6
27/12:05pm 15.1 8.0 10.9 76 2.2 SE 39 54 21 29 1025.3 - 0.6
27/12:00pm 17.4 10.4 9.8 61 4.0 SE 37 50 20 27 1025.2 1025.2 0.0
27/11:30am 17.9 11.7 10.0 60 4.2 SSE 33 43 18 23 1025.4 - 0.0
27/11:00am 17.3 10.8 10.4 64 3.7 SE 35 50 19 27 1025.6 1025.6 0.0
27/10:30am 17.1 11.1 10.0 63 3.7 SSE 32 43 17 23 1025.8 - 0.0
27/10:00am 17.2 12.0 11.7 70 3.0 SSE 30 41 16 22 1025.8 1025.8 0.0
27/09:30am 15.9 12.5 11.3 74 2.5 S 20 28 11 15 1025.8 - 0.0
27/09:00am 14.5 13.0 11.8 84 1.4 SW 11 13 6 7 1025.8 1025.8 26.4
27/08:30am 13.6 12.8 11.7 88 1.0 E 7 13 4 7 1025.8 - 26.4
27/08:10am 13.2 12.3 11.4 89 1.0 SE 7 9 4 5 1025.7 - 26.4
27/08:00am 13.0 10.1 11.1 88 1.0 SE 17 24 9 13 1025.5 1025.5 26.4
27/07:53am 13.1 9.6 11.0 87 1.1 SSE 20 32 11 17 1025.7 - 25.8
27/07:30am 13.4 10.2 11.3 87 1.1 S 19 26 10 14 1025.4 - 25.0
27/07:00am 12.9 10.5 11.5 91 0.7 S 15 19 8 10 1025.0 1025.0 24.8
27/06:51am 12.7 10.6 11.3 91 0.7 SSW 13 17 7 9 1025.0 - 24.8
27/06:30am 12.9 11.3 11.5 91 0.7 S 11 15 6 8 1024.9 - 24.2
27/06:27am 12.8 11.2 11.4 91 0.7 SSW 11 13 6 7 1024.7 - 23.4
27/06:00am 12.7 9.5 11.1 90 0.8 S 19 26 10 14 1024.6 1024.6 19.2
27/05:49am 12.6 9.0 10.7 88 1.0 SSE 20 24 11 13 1024.8 - 17.6
27/05:30am 12.9 8.7 11.0 88 1.0 SSE 24 30 13 16 1024.5 - 16.4
27/05:00am 12.8 10.4 11.4 91 0.7 S 15 20 8 11 1024.4 1024.4 15.8
27/04:51am 12.9 10.5 11.3 90 0.8 S 15 20 8 11 1024.3 - 15.8
27/04:30am 13.0 8.4 11.2 89 0.9 S 26 35 14 19 1024.3 - 15.4
27/04:27am 13.0 8.4 11.1 88 1.0 S 26 35 14 19 1024.4 - 15.0
27/04:00am 13.9 10.5 11.2 84 1.4 SSE 20 28 11 15 1024.2 1024.2 14.4
27/03:30am 14.0 10.9 11.5 85 1.3 SSE 19 24 10 13 1024.0 - 14.4
27/03:00am 13.8 11.9 11.8 88 1.1 SSE 13 17 7 9 1024.0 1024.0 14.4
27/02:37am 13.0 11.2 10.7 86 1.2 SSW 11 13 6 7 1024.0 - 14.4
27/02:30am 13.4 11.6 10.9 85 1.3 SSE 11 17 6 9 1024.0 - 14.4
27/02:19am 13.9 12.6 11.4 85 1.3 ESE 9 13 5 7 1024.1 - 14.2
27/02:00am 13.9 12.0 11.8 87 1.1 SSE 13 20 7 11 1024.1 1024.1 13.8
27/01:30am 12.3 11.3 10.9 91 0.7 SSW 7 9 4 5 1024.4 - 13.6
27/01:00am 13.0 11.8 11.6 91 0.7 SW 9 13 5 7 1024.6 1024.6 13.6
27/12:30am 13.2 12.4 11.8 91 0.7 SSW 7 13 4 7 1024.8 - 13.6
27/12:04am 13.8 13.3 12.2 90 0.9 E 6 11 3 6 1024.9 - 13.6
27/12:00am 13.7 13.2 12.1 90 0.9 E 6 11 3 6 1025.0 1025.0 13.6
 
Date/Time
EST
Temp
°C
App
Temp
°C
Dew
Point
Rel
Hum
%
Delta-T
°C
Wind Press
QNH
hPa
Press
MSL
hPa
Rain
since 9 am
mm
Dir
 
Spd
km/h
Gust
km/h
Spd
kts
Gust
kts
26/11:30pm 13.8 12.1 12.4 91 0.8 ESE 13 17 7 9 1025.2 - 12.0
26/11:12pm 13.7 11.2 12.3 91 0.8 SE 17 22 9 12 1025.1 - 11.6
26/11:00pm 14.0 11.6 12.7 92 0.7 SE 17 24 9 13 1025.3 1025.3 11.2
26/10:54pm 13.9 11.5 12.6 92 0.7 SE 17 20 9 11 1025.2 - 11.2
26/10:30pm 13.5 11.3 12.1 91 0.8 SE 15 19 8 10 1025.1 - 10.6
26/10:08pm 13.5 10.0 12.1 91 0.8 SSE 22 28 12 15 1025.1 - 10.2
26/10:00pm 13.4 9.8 11.8 90 0.9 SSE 22 28 12 15 1025.1 1025.1 10.2
26/09:40pm 13.9 9.5 11.6 86 1.2 SE 26 39 14 21 1025.4 - 8.6
26/09:30pm 14.3 10.9 12.5 89 1.0 SE 22 33 12 18 1024.8 - 7.2
26/09:11pm 14.6 11.7 12.8 89 1.0 ESE 20 37 11 20 1024.7 - 7.0
26/09:00pm 14.5 11.6 13.0 91 0.8 SE 20 35 11 19 1024.9 1024.9 7.0
26/08:52pm 14.5 13.0 13.2 92 0.7 SSE 13 22 7 12 1024.6 - 7.0
26/08:30pm 13.6 13.1 12.5 93 0.6 S 7 13 4 7 1024.7 - 6.2
26/08:00pm 13.3 12.7 12.2 93 0.6 NW 7 11 4 6 1024.3 1024.3 6.0
26/07:52pm 13.2 12.1 12.1 93 0.6 NW 9 13 5 7 1024.4 - 5.8
26/07:33pm 13.0 12.4 11.7 92 0.7 SSW 6 9 3 5 1024.2 - 5.8
26/07:30pm 13.0 12.2 11.7 92 0.7 SSW 7 9 4 5 1024.2 - 5.2
26/07:00pm 12.8 12.1 11.5 92 0.7 S 6 7 3 4 1024.1 1024.1 5.2
26/06:30pm 12.8 11.9 11.4 91 0.7 S 7 9 4 5 1024.0 - 5.2
26/06:00pm 13.3 11.4 11.9 91 0.7 SSW 13 15 7 8 1023.7 1023.7 5.0
26/05:47pm 13.5 11.2 11.9 90 0.9 S 15 17 8 9 1023.6 - 5.0
26/05:30pm 13.8 11.6 12.0 89 1.0 SSE 15 20 8 11 1023.6 - 5.0
26/05:17pm 14.0 12.1 11.9 87 1.1 SE 13 26 7 14 1023.7 - 4.4
26/05:00pm 13.9 11.6 11.6 86 1.2 ESE 15 20 8 11 1023.4 1023.4 3.8
26/04:30pm 14.7 10.6 11.5 81 1.7 SSE 24 33 13 18 1023.1 - 3.6
26/04:26pm 14.8 9.6 11.6 81 1.7 SSE 30 33 16 18 1023.2 - 3.6
26/04:00pm 14.6 13.2 12.3 86 1.2 S 11 15 6 8 1023.2 1023.2 3.6
26/03:30pm 14.7 13.0 12.4 86 1.3 S 13 17 7 9 1022.9 - 3.6
26/03:17pm 14.9 12.4 12.4 85 1.4 S 17 20 9 11 1022.9 - 3.4
26/03:00pm 15.2 12.9 12.9 86 1.3 SSE 17 20 9 11 1023.0 1023.0 3.4
26/02:32pm 15.5 14.1 13.5 88 1.1 SSE 13 17 7 9 1023.0 - 3.4
26/02:30pm 15.2 13.7 13.2 88 1.1 SSE 13 17 7 9 1023.0 - 3.4
26/02:00pm 14.7 13.5 12.9 89 1.0 S 11 17 6 9 1023.1 1023.1 3.2
26/01:30pm 14.0 12.7 12.4 90 0.9 S 11 13 6 7 1023.2 - 3.2
26/01:13pm 13.7 11.8 11.9 89 1.0 S 13 17 7 9 1023.5 - 3.2
26/01:00pm 13.4 10.3 11.6 89 1.0 S 19 24 10 13 1023.7 1023.7 3.2
26/12:51pm 13.5 9.8 11.6 88 1.0 S 22 32 12 17 1023.8 - 2.6
26/12:30pm 14.8 13.5 12.5 86 1.3 S 11 15 6 8 1023.8 - 2.2
26/12:00pm 14.8 13.4 12.1 84 1.5 SSW 11 15 6 8 1023.8 1023.8 2.0
26/11:30am 14.6 13.7 12.6 88 1.1 S 9 11 5 6 1024.1 - 2.0
26/11:00am 14.4 13.2 12.8 90 0.9 S 11 15 6 8 1023.9 1023.9 2.0
26/10:30am 14.3 13.5 12.9 91 0.8 E 9 11 5 6 1024.3 - 1.8
26/10:00am 13.9 12.7 12.8 93 0.6 ESE 11 15 6 8 1024.5 1024.5 1.2
26/09:31am 13.4 11.3 12.3 93 0.6 E 15 20 8 11 1024.6 - 0.8
26/09:30am 13.4 11.7 12.3 93 0.6 E 13 20 7 11 1024.6 - 0.8
26/09:07am 13.3 12.0 12.4 94 0.5 NE 11 15 6 8 1024.3 - 0.2
26/09:00am 13.5 12.6 12.6 94 0.5 ENE 9 15 5 8 1024.2 1024.2 2.4
26/08:47am 13.0 13.7 12.1 94 0.5 CALM 0 7 0 4 1023.9 - 2.0
26/08:33am 12.3 12.7 11.2 93 0.6 CALM 0 0 0 0 1023.7 - 1.8
26/08:31am 12.1 12.4 11.0 93 0.6 CALM 0 0 0 0 1023.6 - 1.6
26/08:30am 12.1 12.4 11.0 93 0.6 CALM 0 0 0 0 1023.6 - 1.6
26/08:11am 11.9 12.2 10.8 93 0.6 CALM 0 6 0 3 1023.4 - 0.6
26/08:06am 11.9 12.2 10.8 93 0.6 CALM 0 6 0 3 1023.3 - 0.4
26/08:00am 11.9 11.8 10.8 93 0.6 S 2 6 1 3 1023.2 1023.2 0.4
26/07:45am 11.8 11.3 10.9 94 0.5 WSW 4 7 2 4 1023.1 - 0.4
26/07:30am 11.6 10.7 10.7 94 0.5 WSW 6 7 3 4 1022.8 - 0.4
26/07:00am 11.1 11.2 10.0 93 0.6 CALM 0 0 0 0 1022.6 1022.6 0.4
26/06:30am 10.8 10.8 9.7 93 0.6 CALM 0 0 0 0 1022.3 - 0.4
26/06:28am 10.7 10.6 9.6 93 0.6 CALM 0 0 0 0 1022.3 - 0.4
26/06:08am 10.0 9.7 8.8 92 0.6 CALM 0 0 0 0 1022.0 - 0.4
26/06:00am 10.7 10.6 9.5 92 0.6 CALM 0 0 0 0 1022.0 1022.0 0.4
26/05:30am 11.0 11.0 9.8 92 0.6 CALM 0 0 0 0 1021.8 - 0.4
26/05:00am 11.0 10.2 9.8 92 0.6 W 4 6 2 3 1021.5 1021.5 0.4
26/04:30am 11.2 9.1 9.9 92 0.7 W 11 13 6 7 1021.4 - 0.4
26/04:00am 11.6 11.0 10.3 92 0.7 SW 4 6 2 3 1021.7 1021.7 0.4
26/03:30am 11.1 10.7 9.9 92 0.6 W 2 7 1 4 1021.9 - 0.4
26/03:00am 11.0 10.2 9.8 92 0.6 WNW 4 6 2 3 1021.8 1021.8 0.4
26/02:30am 10.8 10.0 9.6 92 0.6 WNW 4 7 2 4 1021.9 - 0.4
26/02:00am 10.8 9.9 9.4 91 0.7 SSW 4 7 2 4 1022.1 1022.1 0.4
26/01:30am 11.4 11.1 10.0 91 0.7 NW 2 6 1 3 1022.3 - 0.4
26/01:00am 11.4 11.5 10.0 91 0.7 CALM 0 6 0 3 1022.7 1022.7 0.4
26/12:30am 11.3 11.3 9.9 91 0.7 CALM 0 0 0 0 1023.1 - 0.4
26/12:00am 10.8 10.7 9.4 91 0.7 CALM 0 0 0 0 1023.1 1023.1 0.4
 
Date/Time
EST
Temp
°C
App
Temp
°C
Dew
Point
Rel
Hum
%
Delta-T
°C
Wind Press
QNH
hPa
Press
MSL
hPa
Rain
since 9 am
mm
Dir
 
Spd
km/h
Gust
km/h
Spd
kts
Gust
kts
25/11:30pm 10.9 9.4 9.3 90 0.8 WNW 7 9 4 5 1022.9 - 0.4
25/11:00pm 11.5 10.7 9.8 89 0.9 WNW 4 7 2 4 1023.0 1023.0 0.4
25/10:30pm 11.8 10.5 9.9 88 1.0 WSW 7 9 4 5 1023.1 - 0.4
25/10:00pm 12.6 11.7 10.7 88 1.0 SSW 6 9 3 5 1023.6 1023.6 0.4
25/09:30pm 12.6 11.0 10.3 86 1.2 S 9 11 5 6 1023.6 - 0.4
25/09:00pm 13.7 12.6 10.5 81 1.7 SE 7 9 4 5 1023.4 1023.4 0.4
25/08:30pm 14.6 12.2 11.4 81 1.7 SE 15 20 8 11 1023.6 - 0.4
25/08:00pm 14.1 13.2 11.3 83 1.5 SSE 7 11 4 6 1023.5 1023.5 0.4
25/07:30pm 13.5 11.7 10.7 83 1.5 S 11 13 6 7 1023.6 - 0.4
25/07:00pm 13.5 12.0 10.5 82 1.6 S 9 11 5 6 1023.6 1023.6 0.4
25/06:30pm 13.7 11.7 10.3 80 1.8 S 11 11 6 6 1023.3 - 0.4
25/06:00pm 15.8 14.5 11.2 74 2.5 ESE 9 11 5 6 1022.9 1022.9 0.4
25/05:30pm 16.3 14.3 11.5 73 2.6 E 13 19 7 10 1022.6 - 0.4
25/05:00pm 16.7 13.2 11.0 69 3.0 ESE 20 24 11 13 1022.5 1022.5 0.4
25/04:30pm 16.9 13.5 11.4 70 3.0 E 20 30 11 16 1022.2 - 0.4
25/04:00pm 17.8 13.0 11.6 67 3.4 SE 28 33 15 18 1021.8 1021.8 0.4
25/03:30pm 18.9 14.2 10.5 58 4.5 ESE 26 35 14 19 1022.2 - 0.4
25/03:00pm 19.3 14.7 9.5 53 5.2 ESE 24 32 13 17 1022.1 1022.1 0.4
25/02:30pm 20.2 17.0 10.0 52 5.5 E 17 22 9 12 1022.1 - 0.0
25/02:00pm 19.3 15.3 8.9 51 5.4 E 20 26 11 14 1022.1 1022.1 0.0
25/01:30pm 19.5 15.4 8.8 50 5.6 ESE 20 28 11 15 1022.3 - 0.0
25/01:00pm 20.3 18.4 6.6 41 6.9 ENE 6 19 3 10 1022.6 1022.6 0.0
25/12:30pm 20.0 17.9 6.7 42 6.7 NE 7 17 4 9 1023.2 - 0.0
25/12:00pm 19.7 17.6 8.1 47 6.0 E 9 17 5 9 1023.8 1023.8 0.0
25/11:30am 19.4 17.8 8.7 50 5.6 NNE 7 13 4 7 1024.3 - 0.0
25/11:00am 18.7 17.3 9.5 55 4.8 NW 7 11 4 6 1024.7 1024.7 0.0
25/10:30am 17.9 16.8 10.0 60 4.2 NW 6 9 3 5 1025.2 - 0.0
25/10:00am 16.4 15.4 10.3 67 3.2 NW 6 9 3 5 1025.5 1025.5 0.0
25/09:30am 15.2 14.1 10.8 75 2.3 NW 7 9 4 5 1025.7 - 0.0
25/09:00am 13.5 12.4 10.5 82 1.6 NW 7 11 4 6 1025.9 1025.9 0.0
25/08:30am 12.6 11.7 11.2 91 0.7 NW 7 9 4 5 1025.9 - 0.0
25/08:00am 11.0 9.8 10.2 95 0.4 WNW 7 9 4 5 1025.8 1025.8 0.0
25/07:30am 9.9 9.3 9.1 95 0.4 WNW 2 6 1 3 1025.8 - 0.0
25/07:00am 7.7 7.0 7.0 95 0.3 CALM 0 0 0 0 1025.7 1025.7 0.0
25/06:30am 6.8 5.5 5.9 94 0.4 N 2 9 1 5 1025.4 - 0.0
25/06:19am 8.1 6.3 7.2 94 0.4 NNW 6 7 3 4 1025.3 - 0.0
25/06:03am 7.4 6.6 6.5 94 0.4 CALM 0 0 0 0 1025.1 - 0.0
25/06:00am 7.3 6.5 6.4 94 0.4 CALM 0 0 0 0 1025.1 1025.1 0.0
25/05:30am 7.2 6.4 6.3 94 0.4 CALM 0 0 0 0 1024.9 - 0.0
25/05:16am 7.1 6.2 6.0 93 0.5 CALM 0 0 0 0 1024.8 - 0.0
25/05:00am 7.9 7.2 6.8 93 0.5 CALM 0 0 0 0 1024.7 1024.7 0.0
25/04:57am 7.6 6.8 6.5 93 0.5 CALM 0 0 0 0 1024.7 - 0.0
25/04:33am 7.8 7.1 6.9 94 0.4 CALM 0 0 0 0 1024.7 - 0.0
25/04:30am 8.2 7.6 7.3 94 0.4 CALM 0 6 0 3 1024.7 - 0.0
25/04:00am 7.3 6.4 6.2 93 0.5 CALM 0 0 0 0 1024.7 1024.7 0.0
25/03:46am 7.5 6.7 6.4 93 0.5 CALM 0 0 0 0 1024.7 - 0.0
25/03:30am 7.6 6.8 6.5 93 0.5 CALM 0 0 0 0 1024.8 - 0.0
25/03:00am 8.7 8.1 7.6 93 0.5 CALM 0 0 0 0 1024.9 1024.9 0.0
25/02:55am 8.8 8.3 7.7 93 0.5 CALM 0 0 0 0 1025.0 - 0.0
25/02:30am 8.5 7.9 7.3 92 0.6 CALM 0 0 0 0 1025.3 - 0.0
25/02:00am 8.9 8.4 7.7 92 0.6 CALM 0 0 0 0 1025.6 1025.6 0.0
25/01:30am 9.0 8.4 7.6 91 0.7 CALM 0 0 0 0 1025.9 - 0.0
25/01:22am 8.8 8.2 7.4 91 0.7 CALM 0 0 0 0 1026.0 - 0.0
25/01:00am 9.0 8.4 7.6 91 0.7 CALM 0 0 0 0 1026.2 1026.2 0.0
25/12:55am 9.0 8.4 7.6 91 0.7 CALM 0 0 0 0 1026.3 - 0.0
25/12:35am 9.6 9.2 8.2 91 0.7 CALM 0 0 0 0 1026.5 - 0.0
25/12:30am 9.9 9.6 8.5 91 0.7 CALM 0 0 0 0 1026.5 - 0.0
25/12:00am 10.3 10.0 8.7 90 0.8 CALM 0 0 0 0 1026.5 1026.5 0.0
 
Date/Time
EST
Temp
°C
App
Temp
°C
Dew
Point
Rel
Hum
%
Delta-T
°C
Wind Press
QNH
hPa
Press
MSL
hPa
Rain
since 9 am
mm
Dir
 
Spd
km/h
Gust
km/h
Spd
kts
Gust
kts
24/11:30pm 11.1 11.0 9.5 90 0.8 CALM 0 0 0 0 1026.7 - 0.0
24/11:00pm 11.0 10.9 9.4 90 0.8 CALM 0 0 0 0 1026.9 1026.9 0.0
24/10:30pm 11.1 11.0 9.5 90 0.8 CALM 0 0 0 0 1027.1 - 0.0
24/10:00pm 10.9 10.4 9.3 90 0.8 SW 2 6 1 3 1027.2 1027.2 0.0
24/09:30pm 11.7 11.7 9.9 89 0.9 CALM 0 0 0 0 1027.1 - 0.0
24/09:00pm 11.9 12.0 10.0 88 1.0 CALM 0 0 0 0 1027.1 1027.1 0.0
24/08:30pm 11.9 11.8 9.5 85 1.2 CALM 0 0 0 0 1026.9 - 0.0
24/08:00pm 12.3 12.2 9.3 82 1.5 CALM 0 0 0 0 1026.7 1026.7 0.0
24/07:30pm 12.9 12.6 8.6 75 2.1 CALM 0 0 0 0 1026.5 - 0.0
24/07:00pm 15.3 14.4 10.5 73 2.5 E 6 7 3 4 1026.6 1026.6 0.0

Other Formats:

Comma delimited format used in spreadsheet applications
http://www.bom.gov.au/fwo/IDN60801/IDN60801.94765.axf

JavaScript Object Notation format (JSON) in row-major order
http://www.bom.gov.au/fwo/IDN60801/IDN60801.94765.json